createdAt,value
2022-10-11T00:00:32.342Z,65.67
2022-10-11T00:01:28.149Z,66.89
2022-10-11T00:02:26.293Z,58.11
2022-10-11T00:03:18.460Z,67.63
2022-10-11T00:04:13.492Z,67.14
2022-10-11T00:05:08.562Z,67.14
2022-10-11T00:06:08.417Z,66.89
2022-10-11T00:07:03.275Z,62.50
2022-10-11T00:07:58.594Z,60.79
2022-10-11T00:08:54.647Z,64.70
2022-10-11T00:09:49.814Z,57.86
2022-10-11T00:10:45.141Z,67.14
2022-10-11T00:11:40.159Z,64.94
2022-10-11T00:12:35.917Z,65.67
2022-10-11T00:13:31.072Z,57.13
2022-10-11T00:14:26.524Z,67.14
2022-10-11T00:15:22.159Z,59.57
2022-10-11T00:16:17.336Z,67.14
2022-10-11T00:17:13.199Z,64.94
2022-10-11T00:18:08.356Z,64.70
2022-10-11T00:19:03.644Z,60.79
2022-10-11T00:19:59.445Z,83.50
2022-10-11T00:20:54.645Z,67.14
2022-10-11T00:21:49.824Z,64.45
2022-10-11T00:22:46.333Z,64.21
2022-10-11T00:23:41.669Z,64.94
2022-10-11T00:24:37.375Z,67.38
2022-10-11T00:25:32.702Z,62.74
2022-10-11T00:26:27.880Z,67.14
2022-10-11T00:27:23.747Z,66.89
2022-10-11T00:28:18.951Z,71.53
2022-10-11T00:29:14.123Z,71.53
2022-10-11T00:30:09.392Z,55.42
2022-10-11T00:31:04.935Z,97.66
2022-10-11T00:31:59.782Z,66.16
2022-10-11T00:32:55.081Z,66.89
2022-10-11T00:33:51.230Z,71.78
2022-10-11T00:34:46.385Z,64.70
2022-10-11T00:35:48.571Z,66.89
2022-10-11T00:36:37.450Z,64.21
2022-10-11T00:37:32.586Z,64.94
2022-10-11T00:38:27.798Z,61.04
2022-10-11T00:39:23.061Z,86.91
2022-10-11T00:40:18.390Z,83.50
2022-10-11T00:41:13.599Z,67.38
2022-10-11T00:42:10.086Z,65.19
2022-10-11T00:43:05.238Z,67.63
2022-10-11T00:44:00.417Z,67.14
2022-10-11T00:44:59.756Z,62.74
2022-10-11T00:45:54.998Z,55.18
2022-10-11T00:46:53.664Z,64.21
2022-10-11T00:47:46.518Z,63.23
2022-10-11T00:48:40.506Z,93.51
2022-10-11T00:49:35.564Z,102.29
2022-10-11T00:50:30.587Z,62.26
2022-10-11T00:51:25.634Z,61.77
2022-10-11T00:52:20.695Z,65.43
2022-10-11T00:53:15.696Z,61.52
2022-10-11T00:54:10.712Z,66.89
2022-10-11T00:55:05.733Z,60.30
2022-10-11T00:56:01.005Z,57.13
2022-10-11T00:56:55.882Z,63.23
2022-10-11T00:57:51.005Z,64.45
2022-10-11T00:58:46.043Z,63.96
2022-10-11T00:59:41.092Z,67.63
2022-10-11T01:00:36.120Z,63.96
2022-10-11T01:01:31.187Z,55.42
2022-10-11T01:02:26.241Z,68.12
2022-10-11T01:03:21.261Z,55.42
2022-10-11T01:04:16.441Z,67.87
2022-10-11T01:05:28.582Z,65.92
2022-10-11T01:06:08.667Z,67.14
2022-10-11T01:07:02.423Z,60.55
2022-10-11T01:07:57.567Z,67.38
2022-10-11T01:08:52.739Z,62.01
2022-10-11T01:09:47.874Z,61.52
2022-10-11T01:10:43.294Z,68.12
2022-10-11T01:11:38.356Z,65.67
2022-10-11T01:12:33.754Z,65.43
2022-10-11T01:13:28.990Z,67.14
2022-10-11T01:14:24.137Z,66.89
2022-10-11T01:15:19.287Z,66.16
2022-10-11T01:16:14.616Z,64.70
2022-10-11T01:17:09.496Z,56.15
2022-10-11T01:18:04.525Z,63.48
2022-10-11T01:18:59.548Z,67.38
2022-10-11T01:19:54.555Z,66.89
2022-10-11T01:20:49.614Z,66.65
2022-10-11T01:21:44.764Z,67.38
2022-10-11T01:22:39.773Z,67.87
2022-10-11T01:23:34.812Z,64.70
2022-10-11T01:24:29.810Z,61.04
2022-10-11T01:25:24.877Z,59.81
2022-10-11T01:26:19.884Z,64.70
2022-10-11T01:27:14.970Z,67.63
2022-10-11T01:28:10.077Z,71.04
2022-10-11T01:29:04.982Z,65.43
2022-10-11T01:29:59.971Z,58.11
2022-10-11T01:30:55.012Z,65.19
2022-10-11T01:31:50.187Z,54.44
2022-10-11T01:32:45.383Z,67.38
2022-10-11T01:33:40.541Z,63.96
2022-10-11T01:34:35.843Z,67.38
2022-10-11T01:35:30.993Z,66.41
2022-10-11T01:36:26.170Z,65.92
2022-10-11T01:37:21.314Z,67.38
2022-10-11T01:38:17.095Z,62.26
2022-10-11T01:39:12.232Z,66.89
2022-10-11T01:40:07.414Z,63.72
2022-10-11T01:41:02.615Z,65.92
2022-10-11T01:41:58.579Z,65.92
2022-10-11T01:42:53.858Z,57.62
2022-10-11T01:43:49.043Z,65.43
2022-10-11T01:44:44.937Z,69.82
2022-10-11T01:45:39.994Z,66.89
2022-10-11T01:46:35.138Z,67.63
2022-10-11T01:47:31.532Z,67.63
2022-10-11T01:48:26.854Z,66.16
2022-10-11T01:49:22.695Z,67.38
2022-10-11T01:50:17.755Z,60.79
2022-10-11T01:51:12.943Z,70.07
2022-10-11T01:52:08.696Z,63.96
2022-10-11T01:53:03.866Z,64.70
2022-10-11T01:53:59.839Z,62.99
2022-10-11T01:55:09.253Z,66.65
2022-10-11T01:55:51.244Z,65.92
2022-10-11T01:56:46.320Z,59.08
2022-10-11T01:57:41.502Z,63.72
2022-10-11T01:58:36.762Z,64.21
2022-10-11T01:59:33.182Z,62.01
2022-10-11T02:00:28.355Z,68.12
2022-10-11T02:01:24.318Z,67.87
2022-10-11T02:02:19.482Z,66.41
2022-10-11T02:03:14.893Z,64.94
2022-10-11T02:04:10.516Z,66.65
2022-10-11T02:05:05.666Z,64.45
2022-10-11T02:06:01.697Z,62.99
2022-10-11T02:06:56.848Z,66.41
2022-10-11T02:07:52.263Z,66.41
2022-10-11T02:08:47.887Z,66.41
2022-10-11T02:09:43.079Z,64.70
2022-10-11T02:10:38.214Z,62.99
2022-10-11T02:11:34.934Z,66.16
2022-10-11T02:12:29.998Z,66.16
2022-10-11T02:13:25.750Z,66.89
2022-10-11T02:14:20.895Z,61.52
2022-10-11T02:15:16.088Z,65.43
2022-10-11T02:16:11.937Z,66.89
2022-10-11T02:17:07.169Z,63.96
2022-10-11T02:18:02.878Z,63.23
2022-10-11T02:18:58.025Z,64.70
2022-10-11T02:19:53.531Z,66.65
2022-10-11T02:20:49.123Z,65.19
2022-10-11T02:21:44.319Z,61.52
2022-10-11T02:22:39.468Z,66.65
2022-10-11T02:23:35.880Z,64.21
2022-10-11T02:24:31.237Z,60.55
2022-10-11T02:25:26.940Z,59.81
2022-10-11T02:26:22.087Z,66.41
2022-10-11T02:27:17.247Z,61.77
2022-10-11T02:28:13.170Z,66.89
2022-10-11T02:29:08.334Z,88.62
2022-10-11T02:30:04.367Z,64.94
2022-10-11T02:30:59.370Z,65.92
2022-10-11T02:31:54.699Z,61.28
2022-10-11T02:32:50.563Z,61.52
2022-10-11T02:33:45.852Z,79.59
2022-10-11T02:34:41.194Z,63.23
2022-10-11T02:35:37.498Z,66.65
2022-10-11T02:36:32.663Z,61.52
2022-10-11T02:37:28.543Z,66.89
2022-10-11T02:38:23.819Z,66.41
2022-10-11T02:39:19.130Z,64.21
2022-10-11T02:40:14.892Z,66.41
2022-10-11T02:41:09.919Z,68.85
2022-10-11T02:42:05.099Z,64.70
2022-10-11T02:43:00.280Z,67.87
2022-10-11T02:43:55.550Z,68.60
2022-10-11T02:44:51.997Z,68.36
2022-10-11T02:45:47.166Z,57.13
2022-10-11T02:46:43.037Z,60.55
2022-10-11T02:47:38.358Z,88.13
2022-10-11T02:48:33.677Z,66.16
2022-10-11T02:49:29.309Z,70.31
2022-10-11T02:50:24.557Z,66.89
2022-10-11T02:51:20.565Z,65.43
2022-10-11T02:52:15.718Z,67.38
2022-10-11T02:53:11.068Z,56.15
2022-10-11T02:54:06.676Z,63.23
2022-10-11T02:55:01.855Z,56.40
2022-10-11T02:55:57.027Z,67.87
2022-10-11T02:56:53.546Z,83.50
2022-10-11T02:57:49.047Z,63.96
2022-10-11T02:58:43.921Z,55.91
2022-10-11T02:59:39.191Z,64.70
2022-10-11T03:00:36.832Z,68.85
2022-10-11T03:01:32.114Z,66.89
2022-10-11T03:02:27.465Z,97.66
2022-10-11T03:03:22.937Z,57.62
2022-10-11T03:04:18.082Z,101.32
2022-10-11T03:05:13.294Z,77.39
2022-10-11T03:06:08.677Z,65.43
2022-10-11T03:07:03.550Z,97.17
2022-10-11T03:07:58.570Z,67.38
2022-10-11T03:08:53.598Z,87.65
2022-10-11T03:09:48.639Z,70.56
2022-10-11T03:10:43.669Z,60.30
2022-10-11T03:11:38.727Z,67.14
2022-10-11T03:12:33.789Z,68.60
2022-10-11T03:13:28.797Z,107.67
2022-10-11T03:14:23.878Z,68.12
2022-10-11T03:15:18.879Z,82.52
2022-10-11T03:16:14.281Z,102.54
2022-10-11T03:17:34.350Z,72.51
2022-10-11T03:18:05.711Z,75.68
2022-10-11T03:19:03.568Z,62.74
2022-10-11T03:19:58.712Z,59.57
2022-10-11T03:20:53.905Z,65.92
2022-10-11T03:21:49.181Z,89.36
2022-10-11T03:22:44.465Z,65.43
2022-10-11T03:23:39.511Z,67.87
2022-10-11T03:24:34.504Z,91.31
2022-10-11T03:25:29.510Z,69.58
2022-10-11T03:26:24.554Z,60.79
2022-10-11T03:27:19.630Z,69.58
2022-10-11T03:28:14.701Z,70.80
2022-10-11T03:29:09.753Z,98.39
2022-10-11T03:30:04.769Z,68.60
2022-10-11T03:30:59.801Z,63.96
2022-10-11T03:31:54.819Z,112.06
2022-10-11T03:32:49.861Z,76.66
2022-10-11T03:33:44.831Z,69.58
2022-10-11T03:34:39.837Z,72.02
2022-10-11T03:35:34.884Z,96.92
2022-10-11T03:36:30.722Z,75.68
2022-10-11T03:37:25.751Z,70.07
2022-10-11T03:38:20.950Z,83.74
2022-10-11T03:39:15.974Z,66.41
2022-10-11T03:40:11.031Z,67.87
2022-10-11T03:41:06.056Z,68.85
2022-10-11T03:42:01.072Z,69.58
2022-10-11T03:42:56.142Z,100.34
2022-10-11T03:43:51.179Z,67.38
2022-10-11T03:44:46.186Z,70.56
2022-10-11T03:45:41.199Z,68.12
2022-10-11T03:46:36.228Z,93.51
2022-10-11T03:47:31.267Z,85.21
2022-10-11T03:48:26.373Z,68.60
2022-10-11T03:49:21.408Z,67.63
2022-10-11T03:50:16.457Z,85.94
2022-10-11T03:51:11.507Z,69.82
2022-10-11T03:52:06.537Z,92.29
2022-10-11T03:53:04.794Z,67.38
2022-10-11T03:53:59.979Z,67.87
2022-10-11T03:54:54.867Z,93.99
2022-10-11T03:55:49.905Z,81.54
2022-10-11T03:56:45.062Z,65.92
2022-10-11T03:57:40.086Z,69.09
2022-10-11T03:58:35.163Z,83.74
2022-10-11T03:59:30.177Z,98.63
2022-10-11T04:00:25.242Z,115.48
2022-10-11T04:01:20.295Z,93.75
2022-10-11T04:02:15.302Z,89.11
2022-10-11T04:03:10.393Z,111.82
2022-10-11T04:04:05.722Z,101.56
2022-10-11T04:05:00.540Z,92.04
2022-10-11T04:05:55.571Z,67.14
2022-10-11T04:06:50.582Z,90.58
2022-10-11T04:07:45.621Z,68.85
2022-10-11T04:08:40.631Z,68.85
2022-10-11T04:09:35.912Z,65.19
2022-10-11T04:10:30.783Z,69.82
2022-10-11T04:11:25.818Z,105.71
2022-10-11T04:12:20.962Z,116.46
2022-10-11T04:13:19.737Z,80.08
2022-10-11T04:14:14.919Z,77.15
2022-10-11T04:15:10.318Z,88.38
2022-10-11T04:16:06.463Z,106.69
2022-10-11T04:17:01.320Z,69.34
2022-10-11T04:17:56.464Z,101.56
2022-10-11T04:18:52.936Z,95.46
2022-10-11T04:19:48.228Z,83.01
2022-10-11T04:20:44.010Z,97.17
2022-10-11T04:21:39.173Z,78.86
2022-10-11T04:22:34.345Z,74.46
2022-10-11T04:23:30.098Z,108.89
2022-10-11T04:24:25.338Z,73.24
2022-10-11T04:25:21.283Z,85.94
2022-10-11T04:26:16.301Z,77.39
2022-10-11T04:27:11.734Z,95.95
2022-10-11T04:28:07.626Z,75.68
2022-10-11T04:29:02.912Z,101.32
2022-10-11T04:29:58.231Z,111.57
2022-10-11T04:30:54.475Z,92.29
2022-10-11T04:31:49.673Z,81.30
2022-10-11T04:32:45.460Z,86.91
2022-10-11T04:33:40.634Z,83.25
2022-10-11T04:34:36.091Z,106.20
2022-10-11T04:35:31.715Z,95.21
2022-10-11T04:36:27.070Z,78.86
2022-10-11T04:37:22.833Z,87.89
2022-10-11T04:38:17.988Z,73.24
2022-10-11T04:39:13.443Z,73.49
2022-10-11T04:40:09.124Z,75.68
2022-10-11T04:41:04.409Z,90.82
2022-10-11T04:41:59.622Z,100.10
2022-10-11T04:42:55.918Z,85.21
2022-10-11T04:43:51.140Z,73.73
2022-10-11T04:44:46.921Z,100.59
2022-10-11T04:45:42.167Z,92.53
2022-10-11T04:46:37.432Z,105.71
2022-10-11T04:47:33.263Z,113.04
2022-10-11T04:48:28.488Z,118.90
2022-10-11T04:49:24.272Z,96.92
2022-10-11T04:50:19.443Z,70.31
2022-10-11T04:51:14.785Z,73.49
2022-10-11T04:52:10.515Z,79.59
2022-10-11T04:53:05.747Z,74.95
2022-10-11T04:54:00.902Z,96.68
2022-10-11T04:54:57.319Z,73.49
2022-10-11T04:55:52.615Z,107.18
2022-10-11T04:56:48.410Z,76.42
2022-10-11T04:57:43.631Z,100.10
2022-10-11T04:58:38.910Z,94.24
2022-10-11T04:59:34.717Z,108.89
2022-10-11T05:00:29.903Z,100.10
2022-10-11T05:01:25.800Z,94.24
2022-10-11T05:02:20.945Z,94.97
2022-10-11T05:03:16.321Z,83.01
2022-10-11T05:04:12.081Z,93.51
2022-10-11T05:05:07.283Z,76.17
2022-10-11T05:06:05.718Z,88.13
2022-10-11T05:06:58.840Z,89.11
2022-10-11T05:07:54.113Z,98.14
2022-10-11T05:08:49.832Z,113.04
2022-10-11T05:09:45.045Z,93.99
2022-10-11T05:10:40.515Z,90.82
2022-10-11T05:11:36.190Z,71.78
2022-10-11T05:12:31.580Z,100.59
2022-10-11T05:13:27.148Z,75.44
2022-10-11T05:14:22.397Z,105.47
2022-10-11T05:15:17.786Z,86.91
2022-10-11T05:16:14.238Z,92.04
2022-10-11T05:17:09.428Z,105.71
2022-10-11T05:18:05.175Z,93.26
2022-10-11T05:19:00.467Z,76.42
2022-10-11T05:19:56.034Z,106.45
2022-10-11T05:20:51.646Z,91.80
2022-10-11T05:21:46.957Z,79.59
2022-10-11T05:22:42.737Z,103.76
2022-10-11T05:23:38.031Z,78.86
2022-10-11T05:24:33.465Z,98.39
2022-10-11T05:25:29.068Z,84.47
2022-10-11T05:26:24.362Z,93.26
2022-10-11T05:27:19.705Z,91.55
2022-10-11T05:28:16.035Z,71.53
2022-10-11T05:29:11.332Z,78.86
2022-10-11T05:30:06.523Z,87.16
2022-10-11T05:31:02.032Z,118.16
2022-10-11T05:31:58.112Z,109.38
2022-10-11T05:32:53.498Z,80.57
2022-10-11T05:33:49.125Z,101.56
2022-10-11T05:34:44.401Z,91.80
2022-10-11T05:35:41.008Z,114.50
2022-10-11T05:36:36.500Z,101.56
2022-10-11T05:37:31.919Z,99.85
2022-10-11T05:38:30.541Z,109.62
2022-10-11T05:39:25.931Z,110.35
2022-10-11T05:40:21.395Z,95.46
2022-10-11T05:41:16.798Z,98.63
2022-10-11T05:42:11.907Z,95.95
2022-10-11T05:43:06.928Z,100.59
2022-10-11T05:44:01.916Z,99.85
2022-10-11T05:44:56.963Z,90.82
2022-10-11T05:45:51.996Z,103.52
2022-10-11T05:46:47.136Z,85.69
2022-10-11T05:47:42.295Z,100.10
2022-10-11T05:48:37.425Z,101.81
2022-10-11T05:49:32.515Z,108.64
2022-10-11T05:50:27.547Z,93.75
2022-10-11T05:51:22.714Z,104.74
2022-10-11T05:52:17.584Z,122.07
2022-10-11T05:53:12.580Z,100.10
2022-10-11T05:54:07.625Z,104.25
2022-10-11T05:55:02.604Z,102.29
2022-10-11T05:55:57.703Z,97.17
2022-10-11T05:56:52.782Z,92.04
2022-10-11T05:57:47.952Z,108.15
2022-10-11T05:58:43.012Z,129.39
2022-10-11T05:59:38.115Z,111.08
2022-10-11T06:00:33.156Z,103.76
2022-10-11T06:01:28.215Z,109.86
2022-10-11T06:02:23.444Z,91.06
2022-10-11T06:03:21.213Z,101.07
2022-10-11T06:04:16.242Z,84.23
2022-10-11T06:05:11.291Z,110.84
2022-10-11T06:06:06.717Z,98.14
2022-10-11T06:07:02.087Z,95.21
2022-10-11T06:07:57.662Z,99.61
2022-10-11T06:08:52.530Z,87.89
2022-10-11T06:09:47.520Z,97.66
2022-10-11T06:10:42.608Z,99.37
2022-10-11T06:11:37.647Z,106.45
2022-10-11T06:12:32.843Z,93.75
2022-10-11T06:13:28.044Z,102.05
2022-10-11T06:14:23.128Z,78.12
2022-10-11T06:15:18.197Z,91.06
2022-10-11T06:16:13.296Z,79.59
2022-10-11T06:17:08.294Z,94.73
2022-10-11T06:18:03.368Z,94.48
2022-10-11T06:18:58.829Z,87.16
2022-10-11T06:19:54.302Z,110.84
2022-10-11T06:20:49.768Z,94.24
2022-10-11T06:21:45.258Z,103.27
2022-10-11T06:22:40.798Z,89.11
2022-10-11T06:23:36.281Z,80.32
2022-10-11T06:24:31.848Z,109.13
2022-10-11T06:25:27.223Z,109.86
2022-10-11T06:26:26.138Z,108.89
2022-10-11T06:27:21.644Z,93.99
2022-10-11T06:28:17.352Z,114.01
2022-10-11T06:29:12.629Z,107.67
2022-10-11T06:30:08.117Z,95.21
2022-10-11T06:31:03.902Z,95.21
2022-10-11T06:31:59.272Z,104.00
2022-10-11T06:32:54.788Z,106.20
2022-10-11T06:33:50.158Z,102.29
2022-10-11T06:34:45.625Z,100.83
2022-10-11T06:35:42.178Z,99.12
2022-10-11T06:36:37.723Z,100.83
2022-10-11T06:37:33.235Z,101.56
2022-10-11T06:38:29.041Z,84.72
2022-10-11T06:39:24.415Z,105.47
2022-10-11T06:40:19.937Z,86.91
2022-10-11T06:41:15.030Z,102.05
2022-10-11T06:42:10.036Z,94.73
2022-10-11T06:43:05.154Z,101.07
2022-10-11T06:44:00.128Z,98.88
2022-10-11T06:44:55.233Z,93.51
2022-10-11T06:45:50.304Z,76.66
2022-10-11T06:46:45.374Z,96.92
2022-10-11T06:47:40.375Z,86.18
2022-10-11T06:48:35.655Z,101.32
2022-10-11T06:49:30.603Z,103.03
2022-10-11T06:50:47.132Z,91.80
2022-10-11T06:51:21.831Z,97.41
2022-10-11T06:52:15.873Z,101.81
2022-10-11T06:53:10.878Z,100.34
2022-10-11T06:54:05.940Z,113.28
2022-10-11T06:55:00.946Z,97.17
2022-10-11T06:55:56.040Z,90.82
2022-10-11T06:56:51.394Z,74.46
2022-10-11T06:57:46.820Z,105.47
2022-10-11T06:58:45.680Z,83.74
2022-10-11T06:59:41.226Z,84.72
2022-10-11T07:00:36.606Z,82.76
2022-10-11T07:01:32.279Z,84.72
2022-10-11T07:02:27.685Z,100.59
2022-10-11T07:03:23.220Z,74.71
2022-10-11T07:04:18.708Z,101.32
2022-10-11T07:05:14.386Z,90.58
2022-10-11T07:06:10.505Z,78.37
2022-10-11T07:07:05.087Z,103.27
2022-10-11T07:08:00.655Z,107.91
2022-10-11T07:08:56.088Z,109.38
2022-10-11T07:09:51.610Z,103.27
2022-10-11T07:10:47.298Z,70.56
2022-10-11T07:11:42.688Z,68.36
2022-10-11T07:12:37.785Z,86.67
2022-10-11T07:13:32.904Z,107.18
2022-10-11T07:14:27.888Z,100.59
2022-10-11T07:15:22.987Z,70.07
2022-10-11T07:16:18.101Z,86.43
2022-10-11T07:17:13.257Z,99.12
2022-10-11T07:18:08.385Z,74.71
2022-10-11T07:19:03.388Z,99.61
2022-10-11T07:20:00.258Z,93.51
2022-10-11T07:20:55.346Z,103.52
2022-10-11T07:21:50.425Z,89.36
2022-10-11T07:22:45.386Z,94.73
2022-10-11T07:23:40.489Z,71.29
2022-10-11T07:24:35.477Z,102.54
2022-10-11T07:25:30.608Z,94.48
2022-10-11T07:26:25.721Z,90.82
2022-10-11T07:27:20.992Z,76.66
2022-10-11T07:28:16.590Z,88.87
2022-10-11T07:29:12.696Z,94.97
2022-10-11T07:30:08.197Z,90.58
2022-10-11T07:31:04.108Z,98.39
2022-10-11T07:31:59.642Z,90.58
2022-10-11T07:32:55.322Z,90.58
2022-10-11T07:33:50.830Z,76.17
2022-10-11T07:34:46.340Z,81.54
2022-10-11T07:35:47.388Z,67.87
2022-10-11T07:36:38.660Z,98.39
2022-10-11T07:37:33.490Z,100.83
2022-10-11T07:38:29.047Z,99.37
2022-10-11T07:39:24.669Z,97.41
2022-10-11T07:40:20.215Z,105.47
2022-10-11T07:41:15.672Z,88.38
2022-10-11T07:42:11.550Z,88.62
2022-10-11T07:43:07.139Z,69.58
2022-10-11T07:44:02.726Z,93.99
2022-10-11T07:44:59.041Z,98.88
2022-10-11T07:45:54.582Z,99.85
2022-10-11T07:46:50.366Z,91.80
2022-10-11T07:47:45.856Z,96.68
2022-10-11T07:48:41.455Z,97.66
2022-10-11T07:49:37.234Z,79.35
2022-10-11T07:50:32.747Z,100.34
2022-10-11T07:51:28.580Z,99.85
2022-10-11T07:52:23.977Z,90.82
2022-10-11T07:53:19.463Z,75.93
2022-10-11T07:54:15.397Z,86.43
2022-10-11T07:55:10.974Z,95.95
2022-10-11T07:56:06.874Z,84.96
2022-10-11T07:57:02.817Z,92.29
2022-10-11T07:57:58.365Z,75.44
2022-10-11T07:58:54.149Z,109.38
2022-10-11T07:59:50.460Z,96.68
2022-10-11T08:00:45.363Z,87.40
2022-10-11T08:01:41.364Z,70.56
2022-10-11T08:02:36.822Z,76.90
2022-10-11T08:03:32.766Z,103.27
2022-10-11T08:04:28.174Z,77.39
2022-10-11T08:05:23.661Z,86.67
2022-10-11T08:06:19.525Z,84.72
2022-10-11T08:07:14.903Z,91.55
2022-10-11T08:08:10.436Z,101.81
2022-10-11T08:09:06.544Z,94.97
2022-10-11T08:10:02.078Z,95.70
2022-10-11T08:10:57.876Z,99.61
2022-10-11T08:11:53.421Z,109.62
2022-10-11T08:12:48.921Z,85.94
2022-10-11T08:13:44.716Z,89.84
2022-10-11T08:14:40.238Z,95.46
2022-10-11T08:15:35.822Z,100.10
2022-10-11T08:16:30.831Z,77.39
2022-10-11T08:17:25.806Z,99.61
2022-10-11T08:18:20.920Z,103.76
2022-10-11T08:19:15.955Z,78.61
2022-10-11T08:20:11.072Z,108.64
2022-10-11T08:21:06.188Z,76.66
2022-10-11T08:22:01.304Z,105.96
2022-10-11T08:22:56.283Z,97.17
2022-10-11T08:23:51.423Z,89.36
2022-10-11T08:24:48.543Z,95.95
2022-10-11T08:25:43.663Z,93.75
2022-10-11T08:26:38.826Z,81.30
2022-10-11T08:27:33.797Z,81.54
2022-10-11T08:28:28.969Z,63.23
2022-10-11T08:29:23.965Z,104.25
2022-10-11T08:30:18.988Z,104.74
2022-10-11T08:31:13.982Z,87.40
2022-10-11T08:32:09.050Z,85.21
2022-10-11T08:33:08.368Z,70.31
2022-10-11T08:33:59.970Z,90.33
2022-10-11T08:34:55.639Z,91.55
2022-10-11T08:35:51.420Z,84.47
2022-10-11T08:36:46.902Z,104.00
2022-10-11T08:37:42.468Z,87.16
2022-10-11T08:38:38.099Z,91.80
2022-10-11T08:39:33.469Z,65.19
2022-10-11T08:40:34.294Z,104.98
2022-10-11T08:41:25.510Z,101.07
2022-10-11T08:42:19.607Z,102.05
2022-10-11T08:43:14.593Z,69.09
2022-10-11T08:44:09.587Z,80.81
2022-10-11T08:45:12.424Z,85.21
2022-10-11T08:46:00.641Z,95.46
2022-10-11T08:47:00.186Z,98.14
2022-10-11T08:47:51.640Z,102.54
2022-10-11T08:48:46.685Z,85.45
2022-10-11T08:49:42.086Z,85.94
2022-10-11T08:50:37.521Z,98.88
2022-10-11T08:51:33.797Z,94.24
2022-10-11T08:52:29.375Z,103.03
2022-10-11T08:53:25.222Z,97.66
2022-10-11T08:54:20.672Z,85.69
2022-10-11T08:55:16.081Z,73.49
2022-10-11T08:56:11.800Z,80.08
2022-10-11T08:57:07.364Z,101.56
2022-10-11T08:58:03.418Z,100.34
2022-10-11T08:58:58.458Z,84.23
2022-10-11T08:59:54.034Z,89.11
2022-10-11T09:00:49.764Z,94.73
2022-10-11T09:01:45.377Z,71.04
2022-10-11T09:03:06.387Z,71.78
2022-10-11T09:03:38.043Z,104.74
2022-10-11T09:04:32.504Z,74.22
2022-10-11T09:05:28.483Z,73.00
2022-10-11T09:06:23.931Z,103.03
2022-10-11T09:07:19.346Z,98.88
2022-10-11T09:08:15.070Z,86.67
2022-10-11T09:09:10.691Z,90.33
2022-10-11T09:10:06.505Z,88.62
2022-10-11T09:11:01.837Z,96.68
2022-10-11T09:11:57.247Z,97.17
2022-10-11T09:12:53.000Z,94.24
2022-10-11T09:13:48.519Z,102.05
2022-10-11T09:14:43.798Z,89.36
2022-10-11T09:15:40.320Z,78.37
2022-10-11T09:16:35.861Z,94.24
2022-10-11T09:17:31.701Z,84.72
2022-10-11T09:18:27.144Z,84.47
2022-10-11T09:19:22.889Z,101.81
2022-10-11T09:20:18.339Z,87.40
2022-10-11T09:21:13.890Z,106.45
2022-10-11T09:22:09.734Z,112.55
2022-10-11T09:23:05.066Z,88.13
2022-10-11T09:24:00.657Z,91.31
2022-10-11T09:24:56.286Z,119.63
2022-10-11T09:25:51.749Z,118.90
2022-10-11T09:26:47.163Z,111.57
2022-10-11T09:28:01.644Z,98.63
2022-10-11T09:28:40.098Z,98.63
2022-10-11T09:29:34.914Z,93.99
2022-10-11T09:30:30.169Z,103.27
2022-10-11T09:31:25.615Z,102.78
2022-10-11T09:32:21.375Z,99.12
2022-10-11T09:33:16.807Z,104.74
2022-10-11T09:34:12.648Z,105.71
2022-10-11T09:35:08.161Z,99.12
2022-10-11T09:36:04.006Z,91.06
2022-10-11T09:36:59.555Z,106.93
2022-10-11T09:37:54.993Z,107.67
2022-10-11T09:38:50.463Z,124.51
2022-10-11T09:39:46.851Z,108.64
2022-10-11T09:40:42.311Z,106.20
2022-10-11T09:41:38.169Z,85.94
2022-10-11T09:42:33.612Z,81.79
2022-10-11T09:43:29.028Z,120.36
2022-10-11T09:44:24.781Z,121.58
2022-10-11T09:45:20.315Z,112.79
2022-10-11T09:46:15.784Z,113.04
2022-10-11T09:47:10.860Z,123.78
2022-10-11T09:48:05.923Z,125.49
2022-10-11T09:49:00.927Z,120.36
2022-10-11T09:49:55.995Z,102.78
2022-10-11T09:50:51.077Z,97.17
2022-10-11T09:51:46.106Z,108.89
2022-10-11T09:52:41.159Z,97.90
2022-10-11T09:53:36.177Z,102.05
2022-10-11T09:54:31.214Z,94.73
2022-10-11T09:55:29.017Z,98.88
2022-10-11T09:56:24.054Z,108.64
2022-10-11T09:57:19.147Z,111.33
2022-10-11T09:58:14.188Z,118.65
2022-10-11T09:59:09.243Z,92.53
2022-10-11T10:00:04.337Z,100.83
2022-10-11T10:01:02.791Z,93.51
2022-10-11T10:01:55.538Z,86.43
2022-10-11T10:02:49.478Z,103.76
2022-10-11T10:03:45.816Z,92.77
2022-10-11T10:04:41.348Z,93.02
2022-10-11T10:05:36.929Z,104.49
2022-10-11T10:06:32.779Z,85.21
2022-10-11T10:07:28.156Z,85.69
2022-10-11T10:08:23.646Z,95.95
2022-10-11T10:09:19.182Z,86.18
2022-10-11T10:10:14.283Z,100.10
2022-10-11T10:11:09.260Z,101.56
2022-10-11T10:12:04.297Z,96.68
2022-10-11T10:12:59.407Z,95.95
2022-10-11T10:13:54.490Z,99.85
2022-10-11T10:14:52.481Z,97.17
2022-10-11T10:15:47.668Z,103.03
2022-10-11T10:16:42.715Z,82.52
2022-10-11T10:17:37.704Z,71.78
2022-10-11T10:18:32.769Z,95.95
2022-10-11T10:19:27.809Z,90.58
2022-10-11T10:20:22.938Z,97.66
2022-10-11T10:21:18.040Z,92.77
2022-10-11T10:22:13.058Z,98.63
2022-10-11T10:23:08.104Z,98.63
2022-10-11T10:24:03.278Z,117.19
2022-10-11T10:24:58.842Z,80.57
2022-10-11T10:25:54.675Z,65.67
2022-10-11T10:26:50.210Z,86.43
2022-10-11T10:27:45.640Z,89.84
2022-10-11T10:28:41.401Z,72.75
2022-10-11T10:29:36.992Z,93.26
2022-10-11T10:30:35.522Z,92.77
2022-10-11T10:31:28.088Z,106.93
2022-10-11T10:32:23.767Z,83.50
2022-10-11T10:33:18.816Z,93.99
2022-10-11T10:34:13.905Z,73.73
2022-10-11T10:35:09.009Z,70.07
2022-10-11T10:36:04.264Z,105.71
2022-10-11T10:36:58.986Z,79.59
2022-10-11T10:37:53.968Z,83.98
2022-10-11T10:38:52.135Z,75.68
2022-10-11T10:39:44.018Z,107.42
2022-10-11T10:40:39.122Z,101.32
2022-10-11T10:41:34.352Z,104.98
2022-10-11T10:42:29.651Z,85.69
2022-10-11T10:43:24.573Z,81.54
2022-10-11T10:44:19.641Z,97.17
2022-10-11T10:45:20.113Z,95.95
2022-10-11T10:46:11.505Z,104.98
2022-10-11T10:47:06.015Z,106.93
2022-10-11T10:48:02.603Z,99.37
2022-10-11T10:49:55.284Z,67.14
2022-10-11T10:50:49.235Z,84.23
2022-10-11T10:51:44.732Z,96.68
2022-10-11T10:52:39.861Z,76.66
2022-10-11T10:53:34.993Z,101.81
2022-10-11T10:54:30.053Z,86.91
2022-10-11T10:55:25.127Z,83.01
2022-10-11T10:56:20.212Z,69.34
2022-10-11T10:57:15.440Z,85.69
2022-10-11T10:58:12.985Z,105.47
2022-10-11T10:59:06.530Z,91.06
2022-10-11T11:00:00.513Z,108.15
2022-10-11T11:00:55.610Z,95.46
2022-10-11T11:01:50.689Z,114.99
2022-10-11T11:02:45.717Z,104.74
2022-10-11T11:03:40.843Z,91.55
2022-10-11T11:04:36.031Z,85.21
2022-10-11T11:05:31.541Z,88.13
2022-10-11T11:06:27.018Z,99.12
2022-10-11T11:07:22.942Z,97.66
2022-10-11T11:08:18.485Z,90.33
2022-10-11T11:09:14.290Z,112.79
2022-10-11T11:10:09.808Z,91.55
2022-10-11T11:11:05.310Z,91.06
2022-10-11T11:12:01.116Z,86.43
2022-10-11T11:12:56.587Z,91.31
2022-10-11T11:13:52.131Z,105.22
2022-10-11T11:14:48.365Z,68.60
2022-10-11T11:15:43.874Z,106.20
2022-10-11T11:16:39.381Z,86.67
2022-10-11T11:17:34.914Z,92.77
2022-10-11T11:18:30.702Z,102.29
2022-10-11T11:19:26.191Z,97.90
2022-10-11T11:20:21.740Z,90.82
2022-10-11T11:21:18.070Z,80.08
2022-10-11T11:22:13.567Z,92.77
2022-10-11T11:23:09.372Z,83.50
2022-10-11T11:24:04.879Z,97.41
2022-10-11T11:25:00.280Z,106.45
2022-10-11T11:25:56.134Z,117.43
2022-10-11T11:26:51.669Z,101.07
2022-10-11T11:27:47.488Z,101.81
2022-10-11T11:28:43.018Z,105.71
2022-10-11T11:29:38.501Z,85.94
2022-10-11T11:30:34.294Z,100.83
2022-10-11T11:31:29.830Z,67.87
2022-10-11T11:32:25.360Z,105.47
2022-10-11T11:33:21.488Z,86.91
2022-10-11T11:34:16.988Z,96.68
2022-10-11T11:35:12.507Z,96.44
2022-10-11T11:36:08.137Z,84.96
2022-10-11T11:37:03.259Z,104.74
2022-10-11T11:38:03.838Z,90.58
2022-10-11T11:38:55.904Z,79.35
2022-10-11T11:39:50.259Z,88.87
2022-10-11T11:40:45.808Z,81.30
2022-10-11T11:41:41.156Z,83.50
2022-10-11T11:42:36.649Z,94.73
2022-10-11T11:43:32.386Z,72.75
2022-10-11T11:44:28.629Z,77.39
2022-10-11T11:45:24.152Z,94.48
2022-10-11T11:46:19.687Z,97.17
2022-10-11T11:47:17.726Z,112.55
2022-10-11T11:48:13.177Z,71.04
2022-10-11T11:49:12.750Z,108.64
2022-10-11T11:50:04.209Z,79.35